createdAt,value
2018-05-11T00:01:17.288Z,10.10
2018-05-11T00:03:45.496Z,11.60
2018-05-11T00:06:13.675Z,10.00
2018-05-11T00:08:41.911Z,9.00
2018-05-11T00:11:09.341Z,11.23
2018-05-11T00:13:37.536Z,9.97
2018-05-11T00:16:05.035Z,11.37
2018-05-11T00:18:32.449Z,10.13
2018-05-11T00:21:00.658Z,10.83
2018-05-11T00:23:28.176Z,9.40
2018-05-11T00:25:55.540Z,10.23
2018-05-11T00:28:22.976Z,11.50
2018-05-11T00:30:50.418Z,9.00
2018-05-11T00:33:18.625Z,11.07
2018-05-11T00:35:46.822Z,11.07
2018-05-11T00:38:14.271Z,11.73
2018-05-11T00:40:41.700Z,10.73
2018-05-11T00:43:09.921Z,12.07
2018-05-11T00:45:38.134Z,11.00
2018-05-11T00:48:05.569Z,11.97
2018-05-11T00:50:33.009Z,11.93
2018-05-11T00:53:00.431Z,9.33
2018-05-11T00:55:39.642Z,12.97
2018-05-11T00:58:07.082Z,11.30
2018-05-11T01:00:34.506Z,12.70
2018-05-11T01:03:02.703Z,10.83
2018-05-11T01:05:30.892Z,11.83
2018-05-11T01:07:58.338Z,13.60
2018-05-11T01:10:25.777Z,11.67
2018-05-11T01:12:53.212Z,12.40
2018-05-11T01:15:20.638Z,10.60
2018-05-11T01:17:48.070Z,10.60
2018-05-11T01:20:15.505Z,12.00
2018-05-11T01:22:43.696Z,12.27
2018-05-11T01:25:11.902Z,12.40
2018-05-11T01:27:39.357Z,10.90
2018-05-11T01:30:06.801Z,12.80
2018-05-11T01:32:35.007Z,13.37
2018-05-11T01:35:03.216Z,12.77
2018-05-11T01:37:30.650Z,12.73
2018-05-11T01:39:58.859Z,11.53
2018-05-11T01:42:26.293Z,11.20
2018-05-11T01:44:53.719Z,11.13
2018-05-11T01:47:21.152Z,12.43
2018-05-11T01:49:49.350Z,11.10
2018-05-11T01:52:16.776Z,11.03
2018-05-11T01:54:44.218Z,14.27
2018-05-11T01:57:11.681Z,11.13
2018-05-11T01:59:39.110Z,11.93
2018-05-11T02:02:07.307Z,10.90
2018-05-11T02:04:35.503Z,11.60
2018-05-11T02:07:02.938Z,10.60
2018-05-11T02:09:30.378Z,11.13
2018-05-11T02:11:57.842Z,10.73
2018-05-11T02:14:25.284Z,11.50
2018-05-11T02:16:53.473Z,10.37
2018-05-11T02:19:20.891Z,9.37
2018-05-11T02:21:48.719Z,10.40
2018-05-11T02:24:16.153Z,9.97
2018-05-11T02:26:43.584Z,10.70
2018-05-11T02:29:11.020Z,11.73
2018-05-11T02:31:39.224Z,10.00
2018-05-11T02:34:06.657Z,11.27
2018-05-11T02:36:34.106Z,9.87
2018-05-11T02:39:01.530Z,9.77
2018-05-11T02:41:28.964Z,11.20
2018-05-11T02:43:56.438Z,8.90
2018-05-11T02:46:24.663Z,9.33
2018-05-11T02:48:52.080Z,9.60
2018-05-11T02:51:19.525Z,8.77
2018-05-11T02:53:46.975Z,8.87
2018-05-11T02:56:14.402Z,9.30
2018-05-11T02:58:41.832Z,8.60
2018-05-11T03:01:09.285Z,8.80
2018-05-11T03:03:36.730Z,8.17
2018-05-11T03:06:04.943Z,9.50
2018-05-11T03:08:32.368Z,11.07
2018-05-11T03:10:59.798Z,9.13
2018-05-11T03:13:27.247Z,8.70
2018-05-11T03:15:55.418Z,9.50
2018-05-11T03:18:22.945Z,8.77
2018-05-11T03:20:51.066Z,8.50
2018-05-11T03:23:19.249Z,8.83
2018-05-11T03:25:47.444Z,8.63
2018-05-11T03:28:14.872Z,8.70
2018-05-11T03:30:42.314Z,8.70
2018-05-11T03:33:09.738Z,9.47
2018-05-11T03:35:37.941Z,8.33
2018-05-11T03:38:05.352Z,8.77
2018-05-11T03:40:32.802Z,8.97
2018-05-11T03:43:00.223Z,7.70
2018-05-11T03:45:27.652Z,9.17
2018-05-11T03:47:55.081Z,8.97
2018-05-11T03:50:22.512Z,9.10
2018-05-11T03:52:49.942Z,10.60
2018-05-11T03:55:17.394Z,8.10
2018-05-11T03:57:44.808Z,8.97
2018-05-11T04:00:12.256Z,9.00
2018-05-11T04:02:51.430Z,7.80
2018-05-11T04:05:30.889Z,9.40
2018-05-11T04:08:11.064Z,9.40
2018-05-11T04:10:38.497Z,8.50
2018-05-11T04:13:05.968Z,8.93
2018-05-11T04:15:33.383Z,8.53
2018-05-11T04:18:01.574Z,8.30
2018-05-11T04:20:29.011Z,8.90
2018-05-11T04:22:56.437Z,9.00
2018-05-11T04:25:23.856Z,8.37
2018-05-11T04:27:51.293Z,8.50
2018-05-11T04:30:18.791Z,8.80
2018-05-11T04:32:46.217Z,9.00
2018-05-11T04:35:13.640Z,9.37
2018-05-11T04:37:41.065Z,8.90
2018-05-11T04:40:08.499Z,9.47
2018-05-11T04:42:36.689Z,9.00
2018-05-11T04:45:04.882Z,9.40
2018-05-11T04:47:32.323Z,9.00
2018-05-11T04:49:59.751Z,9.20
2018-05-11T04:52:27.177Z,9.23
2018-05-11T04:54:55.374Z,8.13
2018-05-11T04:57:23.574Z,9.93
2018-05-11T04:59:51.016Z,9.70
2018-05-11T05:02:19.220Z,11.30
2018-05-11T05:04:47.426Z,8.73
2018-05-11T05:07:14.846Z,9.30
2018-05-11T05:09:42.280Z,10.10
2018-05-11T05:12:09.786Z,8.20
2018-05-11T05:14:37.194Z,8.10
2018-05-11T05:17:05.456Z,8.07
2018-05-11T05:19:32.880Z,9.07
2018-05-11T05:22:00.305Z,6.07
2018-05-11T05:24:27.733Z,8.40
2018-05-11T05:26:55.161Z,6.07
2018-05-11T05:29:22.586Z,6.77
2018-05-11T05:31:50.043Z,12.53
2018-05-11T05:34:17.456Z,9.67
2018-05-11T05:36:45.658Z,5.73
2018-05-11T05:39:13.962Z,6.90
2018-05-11T05:41:41.283Z,6.43
2018-05-11T05:44:08.721Z,7.37
2018-05-11T05:46:36.203Z,5.60
2018-05-11T05:49:03.660Z,6.53
2018-05-11T05:51:31.108Z,6.10
2018-05-11T05:53:58.524Z,4.63
2018-05-11T05:56:25.952Z,6.10
2018-05-11T05:58:53.378Z,5.43
2018-05-11T06:01:20.805Z,6.17
2018-05-11T06:03:48.230Z,6.63
2018-05-11T06:06:16.425Z,6.03
2018-05-11T06:08:43.852Z,5.83
2018-05-11T06:11:11.280Z,7.17
2018-05-11T06:13:38.713Z,7.00
2018-05-11T06:16:06.136Z,5.47
2018-05-11T06:18:33.568Z,6.13
2018-05-11T06:21:01.743Z,6.37
2018-05-11T06:23:29.936Z,6.27
2018-05-11T06:25:58.162Z,7.20
2018-05-11T06:28:25.609Z,6.40
2018-05-11T06:30:53.032Z,5.70
2018-05-11T06:33:20.481Z,6.43
2018-05-11T06:35:47.904Z,6.07
2018-05-11T06:38:16.107Z,6.90
2018-05-11T06:40:43.585Z,6.70
2018-05-11T06:43:11.012Z,6.93
2018-05-11T06:45:38.444Z,5.97
2018-05-11T06:48:05.875Z,7.20
2018-05-11T06:50:33.295Z,6.17
2018-05-11T06:53:00.756Z,6.53
2018-05-11T06:55:28.188Z,7.10
2018-05-11T06:57:55.613Z,6.13
2018-05-11T07:00:23.056Z,6.80
2018-05-11T07:02:50.489Z,7.67
2018-05-11T07:05:17.917Z,6.10
2018-05-11T07:07:45.367Z,7.33
2018-05-11T07:10:12.792Z,6.47
2018-05-11T07:12:40.212Z,5.70
2018-05-11T07:15:07.653Z,7.30
2018-05-11T07:17:35.101Z,7.07
2018-05-11T07:20:03.307Z,6.10
2018-05-11T07:22:30.736Z,5.20
2018-05-11T07:24:58.163Z,6.93
2018-05-11T07:27:25.598Z,7.37
2018-05-11T07:29:53.772Z,5.87
2018-05-11T07:32:21.962Z,8.00
2018-05-11T07:34:50.186Z,5.63
2018-05-11T07:37:17.636Z,5.53
2018-05-11T07:39:45.061Z,4.53
2018-05-11T07:42:12.489Z,6.10
2018-05-11T07:44:39.919Z,7.13
2018-05-11T07:47:07.367Z,6.73
2018-05-11T07:49:34.795Z,5.90
2018-05-11T07:52:02.233Z,7.50
2018-05-11T07:54:29.645Z,5.77
2018-05-11T07:56:57.080Z,6.83
2018-05-11T07:59:25.302Z,7.50
2018-05-11T08:01:52.704Z,7.53
2018-05-11T08:04:20.145Z,6.10
2018-05-11T08:06:47.567Z,7.10
2018-05-11T08:09:15.005Z,7.80
2018-05-11T08:11:42.431Z,7.37
2018-05-11T08:14:09.900Z,7.50
2018-05-11T08:16:37.291Z,7.43
2018-05-11T08:19:04.717Z,7.60
2018-05-11T08:21:32.924Z,7.97
2018-05-11T08:24:00.339Z,8.60
2018-05-11T08:26:27.799Z,7.93
2018-05-11T08:28:55.230Z,8.07
2018-05-11T08:31:23.411Z,7.60
2018-05-11T08:33:50.839Z,8.00
2018-05-11T08:36:18.268Z,7.20
2018-05-11T08:38:45.692Z,9.80
2018-05-11T08:41:13.120Z,6.93
2018-05-11T08:43:40.532Z,8.17
2018-05-11T08:46:07.991Z,7.77
2018-05-11T08:48:35.427Z,7.57
2018-05-11T08:51:02.865Z,7.10
2018-05-11T08:53:30.303Z,6.93
2018-05-11T08:55:57.795Z,7.27
2018-05-11T08:58:25.158Z,5.77
2018-05-11T09:00:53.349Z,6.80
2018-05-11T09:03:21.545Z,6.73
2018-05-11T09:05:49.742Z,7.50
2018-05-11T09:08:17.947Z,6.50
2018-05-11T09:10:46.151Z,5.90
2018-05-11T09:13:13.603Z,6.27
2018-05-11T09:15:41.045Z,6.20
2018-05-11T09:18:08.475Z,6.47
2018-05-11T09:20:35.898Z,5.83
2018-05-11T09:23:03.337Z,5.70
2018-05-11T09:25:30.754Z,5.33
2018-05-11T09:27:58.177Z,5.07
2018-05-11T09:30:25.605Z,4.47
2018-05-11T09:32:53.042Z,4.80
2018-05-11T09:35:20.513Z,5.63
2018-05-11T09:37:47.948Z,5.40
2018-05-11T09:40:15.420Z,5.60
2018-05-11T09:42:42.864Z,5.73
2018-05-11T09:45:10.334Z,5.50
2018-05-11T09:47:37.733Z,6.90
2018-05-11T09:50:05.159Z,6.10
2018-05-11T09:52:32.596Z,5.90
2018-05-11T09:55:00.170Z,5.43
2018-05-11T09:57:27.536Z,5.23
2018-05-11T09:59:55.710Z,4.90
2018-05-11T10:02:23.967Z,5.80
2018-05-11T10:04:51.389Z,5.50
2018-05-11T10:07:18.824Z,6.03
2018-05-11T10:09:46.246Z,5.70
2018-05-11T10:12:13.685Z,4.20
2018-05-11T10:14:41.093Z,5.30
2018-05-11T10:17:08.514Z,4.73
2018-05-11T10:19:36.720Z,4.80
2018-05-11T10:22:04.148Z,4.90
2018-05-11T10:24:31.572Z,4.17
2018-05-11T10:26:59.000Z,5.10
2018-05-11T10:29:27.227Z,5.23
2018-05-11T10:31:55.445Z,3.40
2018-05-11T10:34:22.895Z,4.40
2018-05-11T10:36:50.363Z,4.10
2018-05-11T10:39:17.821Z,3.90
2018-05-11T10:41:45.993Z,4.40
2018-05-11T10:44:14.188Z,3.67
2018-05-11T10:46:41.616Z,3.77
2018-05-11T10:49:09.053Z,4.17
2018-05-11T10:51:36.488Z,3.47
2018-05-11T10:54:04.681Z,4.00
2018-05-11T10:56:32.097Z,3.30
2018-05-11T10:58:59.525Z,3.80
2018-05-11T11:01:26.945Z,3.43
2018-05-11T11:03:54.385Z,3.43
2018-05-11T11:06:21.804Z,3.50
2018-05-11T11:08:49.997Z,3.70
2018-05-11T11:11:17.416Z,3.70
2018-05-11T11:13:44.867Z,2.93
2018-05-11T11:16:12.285Z,3.30
2018-05-11T11:18:39.717Z,2.90
2018-05-11T11:21:07.162Z,3.20
2018-05-11T11:23:35.344Z,3.77
2018-05-11T11:26:03.610Z,3.23
2018-05-11T11:28:31.708Z,3.90
2018-05-11T11:30:59.930Z,3.00
2018-05-11T11:33:27.366Z,3.10
2018-05-11T11:35:54.775Z,3.70
2018-05-11T11:38:22.181Z,4.57
2018-05-11T11:40:49.608Z,5.00
2018-05-11T11:43:17.040Z,3.60
2018-05-11T11:45:45.216Z,4.10
2018-05-11T11:48:12.636Z,4.63
2018-05-11T11:50:40.103Z,3.27
2018-05-11T11:53:07.528Z,3.40
2018-05-11T11:55:34.937Z,3.70
2018-05-11T11:58:02.371Z,4.50
2018-05-11T12:00:30.565Z,3.70
2018-05-11T12:02:58.751Z,4.70
2018-05-11T12:05:26.963Z,4.53
2018-05-11T12:07:54.367Z,3.73
2018-05-11T12:10:22.324Z,4.47
2018-05-11T12:12:50.121Z,4.33
2018-05-11T12:15:17.524Z,4.60
2018-05-11T12:17:45.734Z,3.30
2018-05-11T12:20:13.904Z,4.80
2018-05-11T12:22:42.165Z,4.30
2018-05-11T12:25:09.517Z,4.90
2018-05-11T12:27:36.949Z,3.70
2018-05-11T12:30:04.408Z,4.50
2018-05-11T12:32:32.584Z,4.90
2018-05-11T12:35:00.071Z,4.90
2018-05-11T12:37:27.476Z,4.60
2018-05-11T12:39:54.877Z,5.00
2018-05-11T12:42:22.319Z,5.30
2018-05-11T12:44:49.749Z,4.50
2018-05-11T12:47:17.172Z,5.43
2018-05-11T12:49:44.594Z,5.60
2018-05-11T12:52:12.768Z,4.20
2018-05-11T12:54:40.974Z,4.47
2018-05-11T12:57:08.429Z,3.97
2018-05-11T12:59:36.629Z,4.77
2018-05-11T13:02:04.065Z,4.23
2018-05-11T13:04:31.485Z,4.40
2018-05-11T13:06:58.930Z,4.27
2018-05-11T13:09:26.355Z,3.67
2018-05-11T13:11:53.775Z,5.47
2018-05-11T13:14:21.199Z,4.73
2018-05-11T13:16:48.628Z,5.63
2018-05-11T13:19:16.047Z,4.70
2018-05-11T13:21:43.467Z,4.90
2018-05-11T13:24:10.900Z,5.33
2018-05-11T13:26:39.091Z,5.30
2018-05-11T13:29:07.278Z,4.83
2018-05-11T13:31:34.714Z,5.00
2018-05-11T13:34:02.145Z,5.27
2018-05-11T13:36:29.676Z,5.13
2018-05-11T13:38:57.013Z,5.03
2018-05-11T13:41:24.453Z,4.50
2018-05-11T13:43:51.888Z,4.77
2018-05-11T13:46:20.105Z,4.40
2018-05-11T13:48:47.517Z,4.97
2018-05-11T13:51:14.938Z,5.20
2018-05-11T13:53:42.379Z,4.30
2018-05-11T13:56:09.900Z,5.50
2018-05-11T13:58:37.272Z,5.83
2018-05-11T14:01:04.703Z,4.83
2018-05-11T14:03:32.196Z,5.20
2018-05-11T14:05:59.570Z,4.83
2018-05-11T14:08:27.001Z,5.30
2018-05-11T14:10:54.423Z,5.93
2018-05-11T14:13:21.845Z,6.20
2018-05-11T14:15:50.053Z,5.50
2018-05-11T14:18:17.490Z,5.97
2018-05-11T14:20:44.922Z,5.57
2018-05-11T14:23:12.363Z,4.90
2018-05-11T14:25:39.794Z,5.10
2018-05-11T14:28:07.203Z,4.40
2018-05-11T14:30:34.684Z,5.03
2018-05-11T14:33:02.108Z,4.90
2018-05-11T14:35:30.288Z,4.50
2018-05-11T14:37:58.481Z,4.17
2018-05-11T14:40:27.206Z,4.40
2018-05-11T14:42:54.620Z,4.10
2018-05-11T14:45:22.060Z,4.50
2018-05-11T14:47:49.493Z,4.10
2018-05-11T14:50:17.678Z,4.10
2018-05-11T14:52:45.861Z,4.23
2018-05-11T14:55:14.115Z,3.83
2018-05-11T14:57:41.538Z,5.20
2018-05-11T15:00:09.711Z,4.50
2018-05-11T15:02:37.921Z,3.80
2018-05-11T15:05:05.353Z,3.83
2018-05-11T15:07:32.768Z,5.17
2018-05-11T15:10:00.243Z,4.30
2018-05-11T15:12:27.610Z,5.27
2018-05-11T15:14:55.033Z,4.27
2018-05-11T15:17:23.247Z,4.67
2018-05-11T15:19:50.659Z,4.47
2018-05-11T15:22:18.079Z,4.77
2018-05-11T15:24:45.495Z,4.30
2018-05-11T15:27:12.998Z,5.07
2018-05-11T15:29:41.198Z,4.97
2018-05-11T15:32:08.654Z,4.97
2018-05-11T15:34:36.842Z,5.60
2018-05-11T15:37:05.056Z,5.47
2018-05-11T15:39:32.469Z,5.57
2018-05-11T15:41:59.901Z,5.20
2018-05-11T15:44:27.308Z,5.27
2018-05-11T15:46:54.728Z,5.33
2018-05-11T15:49:22.140Z,5.63
2018-05-11T15:51:49.578Z,6.37
2018-05-11T15:54:17.006Z,5.20
2018-05-11T15:56:44.439Z,5.30
2018-05-11T15:59:11.900Z,5.87
2018-05-11T16:01:40.063Z,5.77
2018-05-11T16:04:07.477Z,4.70
2018-05-11T16:06:34.912Z,5.03
2018-05-11T16:09:02.351Z,5.17
2018-05-11T16:11:30.538Z,5.30
2018-05-11T16:13:58.722Z,6.00
2018-05-11T16:16:26.141Z,5.07
2018-05-11T16:18:53.560Z,4.90
2018-05-11T16:21:21.765Z,5.50
2018-05-11T16:23:49.186Z,5.53
2018-05-11T16:26:16.618Z,5.10
2018-05-11T16:28:44.023Z,5.30
2018-05-11T16:31:11.438Z,4.70
2018-05-11T16:33:39.632Z,4.33
2018-05-11T16:36:07.082Z,5.97
2018-05-11T16:38:34.494Z,4.60
2018-05-11T16:41:01.934Z,4.43
2018-05-11T16:43:29.348Z,5.17
2018-05-11T16:45:56.783Z,4.43
2018-05-11T16:48:24.200Z,4.40
2018-05-11T16:50:51.633Z,4.60
2018-05-11T16:53:19.043Z,4.60
2018-05-11T16:55:46.469Z,4.50
2018-05-11T16:58:14.308Z,4.40
2018-05-11T17:00:42.496Z,4.73
2018-05-11T17:03:10.689Z,4.27
2018-05-11T17:05:38.878Z,5.47
2018-05-11T17:08:07.083Z,4.40
2018-05-11T17:10:35.241Z,5.03
2018-05-11T17:13:03.442Z,4.57
2018-05-11T17:15:31.633Z,5.23
2018-05-11T17:17:59.048Z,5.00
2018-05-11T17:20:26.475Z,4.40
2018-05-11T17:22:54.760Z,4.67
2018-05-11T17:25:23.101Z,5.23
2018-05-11T17:27:50.561Z,4.90
2018-05-11T17:30:17.979Z,4.87
2018-05-11T17:32:46.176Z,4.73
2018-05-11T17:35:13.633Z,4.47
2018-05-11T17:37:41.049Z,4.70
2018-05-11T17:40:08.474Z,4.00
2018-05-11T17:42:36.699Z,4.30
2018-05-11T17:45:04.129Z,4.97
2018-05-11T17:47:32.313Z,5.00
2018-05-11T17:49:59.792Z,3.93
2018-05-11T17:52:27.976Z,5.20
2018-05-11T17:54:55.457Z,3.77
2018-05-11T17:57:22.878Z,4.40
2018-05-11T17:59:50.324Z,3.80
2018-05-11T18:02:17.774Z,4.23
2018-05-11T18:04:45.964Z,3.93
2018-05-11T18:07:13.389Z,5.00
2018-05-11T18:09:40.809Z,4.00
2018-05-11T18:12:08.267Z,4.50
2018-05-11T18:14:35.656Z,5.17
2018-05-11T18:17:03.071Z,5.43
2018-05-11T18:19:30.497Z,4.60
2018-05-11T18:21:57.916Z,4.00
2018-05-11T18:24:26.125Z,5.20
2018-05-11T18:26:53.558Z,4.27
2018-05-11T18:29:21.214Z,5.80
2018-05-11T18:31:48.639Z,5.00
2018-05-11T18:34:16.933Z,5.33
2018-05-11T18:36:45.139Z,4.27
2018-05-11T18:39:12.557Z,4.13
2018-05-11T18:41:39.961Z,4.10
2018-05-11T18:44:07.377Z,4.30
2018-05-11T18:46:34.802Z,4.17
2018-05-11T18:49:02.276Z,4.87
2018-05-11T18:51:29.689Z,4.77
2018-05-11T18:53:57.389Z,4.83
2018-05-11T18:56:24.541Z,4.70
2018-05-11T18:58:52.783Z,5.53
2018-05-11T19:01:20.192Z,3.70
2018-05-11T19:03:47.632Z,4.43
2018-05-11T19:06:15.046Z,3.53
2018-05-11T19:08:43.223Z,4.10
2018-05-11T19:11:10.674Z,4.40
2018-05-11T19:13:38.107Z,4.67
2018-05-11T19:16:05.527Z,3.87
2018-05-11T19:18:32.954Z,5.03
2018-05-11T19:21:00.378Z,4.00
2018-05-11T19:23:28.597Z,4.53
2018-05-11T19:25:56.009Z,4.70
2018-05-11T19:28:23.453Z,4.77
2018-05-11T19:30:50.879Z,4.53
2018-05-11T19:33:19.078Z,5.93
2018-05-11T19:35:46.509Z,4.23
2018-05-11T19:38:13.938Z,5.20
2018-05-11T19:40:41.386Z,4.83
2018-05-11T19:43:09.564Z,4.47
2018-05-11T19:45:37.745Z,4.30
2018-05-11T19:48:05.169Z,5.67
2018-05-11T19:50:32.585Z,4.93
2018-05-11T19:53:00.014Z,5.10
2018-05-11T19:55:27.423Z,4.90
2018-05-11T19:57:55.617Z,4.90
2018-05-11T20:00:23.815Z,4.70
2018-05-11T20:02:51.232Z,5.00
2018-05-11T20:05:18.680Z,5.37
2018-05-11T20:07:46.108Z,4.83
2018-05-11T20:10:14.297Z,6.17
2018-05-11T20:12:42.484Z,4.77
2018-05-11T20:15:10.677Z,4.87
2018-05-11T20:17:38.870Z,5.33
2018-05-11T20:20:07.116Z,10.00
2018-05-11T20:22:34.545Z,5.97
2018-05-11T20:25:02.086Z,5.20
2018-05-11T20:27:29.388Z,5.40
2018-05-11T20:29:56.859Z,5.53
2018-05-11T20:32:24.301Z,5.75
2018-05-11T20:34:51.705Z,6.00
2018-05-11T20:37:19.125Z,5.83
2018-05-11T20:39:47.321Z,5.00
2018-05-11T20:42:15.504Z,5.70
2018-05-11T20:44:43.708Z,6.80
2018-05-11T20:47:11.204Z,5.60
2018-05-11T20:49:38.622Z,5.07
2018-05-11T20:52:06.053Z,5.93
2018-05-11T20:54:33.467Z,5.53
2018-05-11T20:57:01.660Z,5.10
2018-05-11T20:59:29.850Z,5.30
2018-05-11T21:01:58.048Z,6.93
2018-05-11T21:04:25.472Z,5.67
2018-05-11T21:06:52.904Z,6.70
2018-05-11T21:09:20.348Z,6.63
2018-05-11T21:11:47.772Z,5.73
2018-05-11T21:14:15.232Z,5.67
2018-05-11T21:16:42.641Z,6.40
2018-05-11T21:19:10.862Z,6.80
2018-05-11T21:21:38.267Z,6.73
2018-05-11T21:24:05.690Z,6.00
2018-05-11T21:26:33.132Z,6.60
2018-05-11T21:29:01.324Z,6.20
2018-05-11T21:31:28.846Z,5.97
2018-05-11T21:33:56.275Z,6.40
2018-05-11T21:36:23.705Z,6.13
2018-05-11T21:38:51.133Z,8.97
2018-05-11T21:41:18.571Z,7.00
2018-05-11T21:43:46.003Z,6.90
2018-05-11T21:46:13.427Z,7.00
2018-05-11T21:48:40.872Z,7.27
2018-05-11T21:51:08.309Z,34.57
2018-05-11T21:53:35.757Z,21.90
2018-05-11T21:56:03.186Z,7.57
2018-05-11T21:58:30.602Z,7.40
2018-05-11T22:00:58.058Z,7.57
2018-05-11T22:03:25.462Z,10.80
2018-05-11T22:05:53.680Z,8.50
2018-05-11T22:08:21.121Z,7.60
2018-05-11T22:10:48.548Z,7.40
2018-05-11T22:13:16.025Z,6.93
2018-05-11T22:15:43.440Z,7.13
2018-05-11T22:18:11.648Z,7.70
2018-05-11T22:20:39.068Z,6.23
2018-05-11T22:23:06.500Z,6.60
2018-05-11T22:25:33.945Z,6.43
2018-05-11T22:28:02.123Z,6.10
2018-05-11T22:30:30.308Z,6.30
2018-05-11T22:32:58.501Z,6.67
2018-05-11T22:35:26.686Z,7.30
2018-05-11T22:37:54.901Z,5.77
2018-05-11T22:40:22.367Z,5.90
2018-05-11T22:42:49.815Z,5.70
2018-05-11T22:45:17.988Z,5.80
2018-05-11T22:47:46.173Z,5.80
2018-05-11T22:50:14.367Z,6.43
2018-05-11T22:52:42.569Z,7.47
2018-05-11T22:55:09.998Z,6.00
2018-05-11T22:57:37.426Z,6.43
2018-05-11T23:00:04.858Z,7.70
2018-05-11T23:02:33.076Z,6.03
2018-05-11T23:05:00.518Z,7.33
2018-05-11T23:07:28.744Z,6.77
2018-05-11T23:09:56.966Z,7.67
2018-05-11T23:12:24.337Z,7.97
2018-05-11T23:14:51.778Z,7.57
2018-05-11T23:17:19.191Z,6.87
2018-05-11T23:19:47.400Z,8.07
2018-05-11T23:22:15.581Z,7.63
2018-05-11T23:24:43.772Z,7.37
2018-05-11T23:27:11.185Z,8.00
2018-05-11T23:29:38.603Z,8.20
2018-05-11T23:32:06.028Z,7.93
2018-05-11T23:34:33.455Z,7.13
2018-05-11T23:37:00.880Z,7.03
2018-05-11T23:39:28.324Z,8.03
2018-05-11T23:41:55.761Z,7.20
2018-05-11T23:44:23.215Z,6.87
2018-05-11T23:46:51.392Z,6.13
2018-05-11T23:49:19.573Z,5.97
2018-05-11T23:51:47.764Z,7.80
2018-05-11T23:54:15.214Z,7.07
2018-05-11T23:56:42.643Z,6.90
2018-05-11T23:59:10.105Z,6.97
